sensor_id;sensor_type;location;lat;lon;timestamp;P1;durP1;ratioP1;P2;durP2;ratioP2
12800;SDS011;6464;42.494;27.470;2024-02-14T09:41:19;6.00;;;5.90;;
12800;SDS011;6464;42.494;27.470;2024-02-14T09:54:38;6.00;;;5.90;;
12800;SDS011;6464;42.494;27.470;2024-02-14T10:33:53;6.00;;;5.90;;
12800;SDS011;6464;42.494;27.470;2024-02-14T10:36:36;6.23;;;6.07;;
12800;SDS011;6464;42.494;27.470;2024-02-14T10:39:08;6.10;;;6.00;;
12800;SDS011;6464;42.494;27.470;2024-02-14T10:42:20;6.70;;;6.50;;
12800;SDS011;6464;42.494;27.470;2024-02-14T10:45:00;6.00;;;5.90;;
12800;SDS011;6464;42.494;27.470;2024-02-14T10:47:58;5.70;;;5.60;;
12800;SDS011;6464;42.494;27.470;2024-02-14T10:59:11;6.30;;;6.10;;
12800;SDS011;6464;42.494;27.470;2024-02-14T11:01:42;6.40;;;6.20;;
12800;SDS011;6464;42.494;27.470;2024-02-14T11:04:17;6.50;;;6.30;;
12800;SDS011;6464;42.494;27.470;2024-02-14T11:06:52;6.30;;;6.10;;
12800;SDS011;6464;42.494;27.470;2024-02-14T11:12:06;5.70;;;5.60;;
12800;SDS011;6464;42.494;27.470;2024-02-14T11:18:03;5.80;;;5.70;;
12800;SDS011;6464;42.494;27.470;2024-02-14T11:20:34;6.03;;;5.93;;
12800;SDS011;6464;42.494;27.470;2024-02-14T11:23:21;6.00;;;5.90;;
12800;SDS011;6464;42.494;27.470;2024-02-14T11:28:59;5.90;;;5.80;;
12800;SDS011;6464;42.494;27.470;2024-02-14T11:31:35;5.80;;;5.70;;
12800;SDS011;6464;42.494;27.470;2024-02-14T11:34:38;6.63;;;6.43;;
12800;SDS011;6464;42.494;27.470;2024-02-14T11:37:09;6.07;;;5.93;;
12800;SDS011;6464;42.494;27.470;2024-02-14T11:39:52;6.57;;;6.37;;
12800;SDS011;6464;42.494;27.470;2024-02-14T11:42:32;6.43;;;6.23;;
12800;SDS011;6464;42.494;27.470;2024-02-14T11:45:07;6.70;;;6.50;;
12800;SDS011;6464;42.494;27.470;2024-02-14T11:47:36;6.40;;;6.20;;
12800;SDS011;6464;42.494;27.470;2024-02-14T11:50:23;6.60;;;6.40;;
12800;SDS011;6464;42.494;27.470;2024-02-14T11:52:52;6.70;;;6.50;;
12800;SDS011;6464;42.494;27.470;2024-02-14T11:55:27;6.40;;;6.20;;
12800;SDS011;6464;42.494;27.470;2024-02-14T11:57:57;6.30;;;6.10;;
12800;SDS011;6464;42.494;27.470;2024-02-14T12:00:44;6.50;;;6.30;;
12800;SDS011;6464;42.494;27.470;2024-02-14T12:06:02;7.80;;;7.60;;
12800;SDS011;6464;42.494;27.470;2024-02-14T12:08:32;7.20;;;7.00;;
12800;SDS011;6464;42.494;27.470;2024-02-14T12:11:00;7.90;;;7.70;;
12800;SDS011;6464;42.494;27.470;2024-02-14T12:13:28;7.85;;;7.65;;
12800;SDS011;6464;42.494;27.470;2024-02-14T12:16:03;7.00;;;6.80;;
12800;SDS011;6464;42.494;27.470;2024-02-14T12:18:46;8.30;;;8.00;;
12800;SDS011;6464;42.494;27.470;2024-02-14T12:24:09;6.43;;;6.23;;
12800;SDS011;6464;42.494;27.470;2024-02-14T12:26:40;6.40;;;6.20;;
12800;SDS011;6464;42.494;27.470;2024-02-14T12:29:07;6.40;;;6.20;;
12800;SDS011;6464;42.494;27.470;2024-02-14T12:31:36;6.70;;;6.50;;
12800;SDS011;6464;42.494;27.470;2024-02-14T12:34:05;6.72;;;6.53;;
12800;SDS011;6464;42.494;27.470;2024-02-14T12:36:34;6.53;;;6.32;;
12800;SDS011;6464;42.494;27.470;2024-02-14T12:39:01;6.50;;;6.30;;
12800;SDS011;6464;42.494;27.470;2024-02-14T12:41:33;6.60;;;6.40;;
12800;SDS011;6464;42.494;27.470;2024-02-14T12:44:02;6.70;;;6.50;;
12800;SDS011;6464;42.494;27.470;2024-02-14T12:46:32;6.90;;;6.70;;
12800;SDS011;6464;42.494;27.470;2024-02-14T12:49:03;6.80;;;6.60;;
12800;SDS011;6464;42.494;27.470;2024-02-14T12:51:34;7.00;;;6.80;;
12800;SDS011;6464;42.494;27.470;2024-02-14T12:54:04;6.78;;;6.57;;
12800;SDS011;6464;42.494;27.470;2024-02-14T12:57:00;6.55;;;6.35;;
12800;SDS011;6464;42.494;27.470;2024-02-14T12:59:32;6.80;;;6.60;;
12800;SDS011;6464;42.494;27.470;2024-02-14T13:02:02;6.82;;;6.63;;
12800;SDS011;6464;42.494;27.470;2024-02-14T13:04:34;6.93;;;6.72;;
12800;SDS011;6464;42.494;27.470;2024-02-14T13:07:02;6.90;;;6.70;;
12800;SDS011;6464;42.494;27.470;2024-02-14T13:09:34;7.00;;;6.80;;
12800;SDS011;6464;42.494;27.470;2024-02-14T13:15:13;6.60;;;6.40;;
12800;SDS011;6464;42.494;27.470;2024-02-14T13:18:09;7.10;;;6.90;;
12800;SDS011;6464;42.494;27.470;2024-02-14T13:20:38;6.37;;;6.17;;
12800;SDS011;6464;42.494;27.470;2024-02-14T13:23:27;6.60;;;6.40;;
12800;SDS011;6464;42.494;27.470;2024-02-14T13:25:59;6.88;;;6.68;;
12800;SDS011;6464;42.494;27.470;2024-02-14T13:28:29;6.73;;;6.53;;
12800;SDS011;6464;42.494;27.470;2024-02-14T13:31:16;6.60;;;6.40;;
12800;SDS011;6464;42.494;27.470;2024-02-14T13:33:53;6.60;;;6.40;;
12800;SDS011;6464;42.494;27.470;2024-02-14T13:39:10;6.80;;;6.60;;
12800;SDS011;6464;42.494;27.470;2024-02-14T13:41:50;6.97;;;6.77;;
12800;SDS011;6464;42.494;27.470;2024-02-14T13:44:23;7.10;;;6.90;;
12800;SDS011;6464;42.494;27.470;2024-02-14T14:09:36;7.00;;;6.80;;
12800;SDS011;6464;42.494;27.470;2024-02-14T14:12:03;7.10;;;6.90;;
12800;SDS011;6464;42.494;27.470;2024-02-14T14:14:37;6.87;;;6.67;;
12800;SDS011;6464;42.494;27.470;2024-02-14T14:19:40;7.20;;;7.00;;
12800;SDS011;6464;42.494;27.470;2024-02-14T14:36:05;7.43;;;7.23;;
12800;SDS011;6464;42.494;27.470;2024-02-14T14:38:36;6.97;;;6.77;;
12800;SDS011;6464;42.494;27.470;2024-02-14T14:41:07;7.10;;;6.90;;
12800;SDS011;6464;42.494;27.470;2024-02-14T14:43:42;7.20;;;7.00;;
12800;SDS011;6464;42.494;27.470;2024-02-14T14:48:58;7.10;;;6.90;;
12800;SDS011;6464;42.494;27.470;2024-02-14T14:51:27;6.70;;;6.50;;
12800;SDS011;6464;42.494;27.470;2024-02-14T14:54:08;6.50;;;6.30;;
12800;SDS011;6464;42.494;27.470;2024-02-14T14:57:11;6.70;;;6.50;;
12800;SDS011;6464;42.494;27.470;2024-02-14T15:00:31;6.73;;;6.53;;
12800;SDS011;6464;42.494;27.470;2024-02-14T15:13:22;7.47;;;7.27;;
12800;SDS011;6464;42.494;27.470;2024-02-14T15:18:24;7.00;;;6.80;;
12800;SDS011;6464;42.494;27.470;2024-02-14T15:21:09;6.70;;;6.50;;
12800;SDS011;6464;42.494;27.470;2024-02-14T15:23:37;7.20;;;7.00;;
12800;SDS011;6464;42.494;27.470;2024-02-14T15:35:14;7.27;;;7.07;;
12800;SDS011;6464;42.494;27.470;2024-02-14T15:42:54;7.93;;;7.73;;
12800;SDS011;6464;42.494;27.470;2024-02-14T16:08:15;6.47;;;6.27;;
12800;SDS011;6464;42.494;27.470;2024-02-14T16:10:45;6.50;;;6.30;;
12800;SDS011;6464;42.494;27.470;2024-02-14T16:18:59;6.80;;;6.60;;
12800;SDS011;6464;42.494;27.470;2024-02-14T16:21:26;6.40;;;6.20;;
12800;SDS011;6464;42.494;27.470;2024-02-14T16:23:54;6.30;;;6.10;;
12800;SDS011;6464;42.494;27.470;2024-02-14T16:26:21;6.27;;;6.07;;
12800;SDS011;6464;42.494;27.470;2024-02-14T16:28:49;6.60;;;6.40;;
12800;SDS011;6464;42.494;27.470;2024-02-14T16:31:16;6.43;;;6.23;;
12800;SDS011;6464;42.494;27.470;2024-02-14T16:33:46;6.50;;;6.30;;
12800;SDS011;6464;42.494;27.470;2024-02-14T16:36:13;6.60;;;6.40;;
12800;SDS011;6464;42.494;27.470;2024-02-14T16:41:20;6.80;;;6.60;;
12800;SDS011;6464;42.494;27.470;2024-02-14T16:44:15;7.13;;;6.93;;
12800;SDS011;6464;42.494;27.470;2024-02-14T16:57:41;6.97;;;6.77;;
12800;SDS011;6464;42.494;27.470;2024-02-14T17:00:08;6.70;;;6.50;;
12800;SDS011;6464;42.494;27.470;2024-02-14T17:02:36;7.13;;;6.93;;
12800;SDS011;6464;42.494;27.470;2024-02-14T17:05:03;7.10;;;6.90;;
12800;SDS011;6464;42.494;27.470;2024-02-14T17:07:30;6.87;;;6.67;;
12800;SDS011;6464;42.494;27.470;2024-02-14T17:09:57;7.27;;;7.07;;
12800;SDS011;6464;42.494;27.470;2024-02-14T17:12:25;7.37;;;7.17;;
12800;SDS011;6464;42.494;27.470;2024-02-14T17:14:53;7.07;;;6.87;;
12800;SDS011;6464;42.494;27.470;2024-02-14T17:17:21;6.67;;;6.47;;
12800;SDS011;6464;42.494;27.470;2024-02-14T17:19:49;6.90;;;6.70;;
12800;SDS011;6464;42.494;27.470;2024-02-14T17:22:16;6.60;;;6.40;;
12800;SDS011;6464;42.494;27.470;2024-02-14T17:24:44;7.30;;;7.10;;
12800;SDS011;6464;42.494;27.470;2024-02-14T17:27:20;6.83;;;6.63;;
12800;SDS011;6464;42.494;27.470;2024-02-14T17:29:49;6.60;;;6.40;;
12800;SDS011;6464;42.494;27.470;2024-02-14T17:32:17;6.77;;;6.57;;
12800;SDS011;6464;42.494;27.470;2024-02-14T17:34:46;7.00;;;6.80;;
12800;SDS011;6464;42.494;27.470;2024-02-14T17:37:13;6.90;;;6.70;;
12800;SDS011;6464;42.494;27.470;2024-02-14T17:39:40;6.90;;;6.70;;
12800;SDS011;6464;42.494;27.470;2024-02-14T17:42:09;6.67;;;6.47;;
12800;SDS011;6464;42.494;27.470;2024-02-14T17:44:36;6.70;;;6.50;;
12800;SDS011;6464;42.494;27.470;2024-02-14T17:47:03;6.87;;;6.67;;
12800;SDS011;6464;42.494;27.470;2024-02-14T17:49:32;6.70;;;6.50;;
12800;SDS011;6464;42.494;27.470;2024-02-14T17:51:59;6.70;;;6.50;;
12800;SDS011;6464;42.494;27.470;2024-02-14T17:54:26;7.00;;;6.80;;
12800;SDS011;6464;42.494;27.470;2024-02-14T17:56:53;6.83;;;6.63;;
12800;SDS011;6464;42.494;27.470;2024-02-14T17:59:22;6.70;;;6.50;;
12800;SDS011;6464;42.494;27.470;2024-02-14T18:01:50;6.60;;;6.40;;
12800;SDS011;6464;42.494;27.470;2024-02-14T18:04:17;6.70;;;6.50;;
12800;SDS011;6464;42.494;27.470;2024-02-14T18:06:46;6.50;;;6.30;;
12800;SDS011;6464;42.494;27.470;2024-02-14T18:09:14;6.40;;;6.20;;
12800;SDS011;6464;42.494;27.470;2024-02-14T18:11:42;6.80;;;6.60;;
12800;SDS011;6464;42.494;27.470;2024-02-14T18:14:08;6.90;;;6.70;;
12800;SDS011;6464;42.494;27.470;2024-02-14T18:16:36;6.60;;;6.40;;
12800;SDS011;6464;42.494;27.470;2024-02-14T18:19:05;6.50;;;6.30;;
12800;SDS011;6464;42.494;27.470;2024-02-14T18:21:32;6.40;;;6.20;;
12800;SDS011;6464;42.494;27.470;2024-02-14T18:24:04;6.70;;;6.50;;
12800;SDS011;6464;42.494;27.470;2024-02-14T18:26:32;6.73;;;6.53;;
12800;SDS011;6464;42.494;27.470;2024-02-14T18:29:01;6.47;;;6.27;;
12800;SDS011;6464;42.494;27.470;2024-02-14T18:31:27;6.40;;;6.20;;
12800;SDS011;6464;42.494;27.470;2024-02-14T18:33:56;6.07;;;5.97;;
12800;SDS011;6464;42.494;27.470;2024-02-14T18:36:23;6.43;;;6.23;;
12800;SDS011;6464;42.494;27.470;2024-02-14T18:38:50;6.10;;;6.00;;
12800;SDS011;6464;42.494;27.470;2024-02-14T18:41:19;6.43;;;6.23;;
12800;SDS011;6464;42.494;27.470;2024-02-14T18:43:46;6.07;;;5.97;;
12800;SDS011;6464;42.494;27.470;2024-02-14T18:46:13;6.47;;;6.27;;
12800;SDS011;6464;42.494;27.470;2024-02-14T18:48:40;6.07;;;5.97;;
12800;SDS011;6464;42.494;27.470;2024-02-14T18:51:05;6.30;;;6.10;;
12800;SDS011;6464;42.494;27.470;2024-02-14T18:53:32;6.23;;;6.03;;
12800;SDS011;6464;42.494;27.470;2024-02-14T18:55:59;6.30;;;6.10;;
12800;SDS011;6464;42.494;27.470;2024-02-14T18:58:31;6.40;;;6.20;;
12800;SDS011;6464;42.494;27.470;2024-02-14T19:00:58;6.57;;;6.37;;
12800;SDS011;6464;42.494;27.470;2024-02-14T19:03:24;6.40;;;6.20;;
12800;SDS011;6464;42.494;27.470;2024-02-14T19:05:54;6.00;;;5.90;;
12800;SDS011;6464;42.494;27.470;2024-02-14T19:08:20;6.43;;;6.23;;
12800;SDS011;6464;42.494;27.470;2024-02-14T19:10:47;6.70;;;6.50;;
12800;SDS011;6464;42.494;27.470;2024-02-14T19:13:14;6.77;;;6.57;;
12800;SDS011;6464;42.494;27.470;2024-02-14T19:15:43;6.60;;;6.40;;
12800;SDS011;6464;42.494;27.470;2024-02-14T19:18:10;7.10;;;6.90;;
12800;SDS011;6464;42.494;27.470;2024-02-14T19:20:37;6.40;;;6.20;;
12800;SDS011;6464;42.494;27.470;2024-02-14T19:23:04;6.80;;;6.60;;
12800;SDS011;6464;42.494;27.470;2024-02-14T19:25:32;6.30;;;6.10;;
12800;SDS011;6464;42.494;27.470;2024-02-14T19:27:58;6.63;;;6.43;;
12800;SDS011;6464;42.494;27.470;2024-02-14T19:30:25;6.13;;;6.00;;
12800;SDS011;6464;42.494;27.470;2024-02-14T19:32:54;6.40;;;6.20;;
12800;SDS011;6464;42.494;27.470;2024-02-14T19:35:20;6.03;;;5.93;;
12800;SDS011;6464;42.494;27.470;2024-02-14T19:37:47;5.47;;;5.37;;
12800;SDS011;6464;42.494;27.470;2024-02-14T19:40:14;6.47;;;6.27;;
12800;SDS011;6464;42.494;27.470;2024-02-14T19:42:41;6.00;;;5.90;;
12800;SDS011;6464;42.494;27.470;2024-02-14T19:45:09;6.00;;;5.90;;
12800;SDS011;6464;42.494;27.470;2024-02-14T19:47:35;5.97;;;5.87;;
12800;SDS011;6464;42.494;27.470;2024-02-14T19:50:07;6.10;;;6.00;;
12800;SDS011;6464;42.494;27.470;2024-02-14T19:52:36;6.50;;;6.30;;
12800;SDS011;6464;42.494;27.470;2024-02-14T19:55:03;6.30;;;6.10;;
12800;SDS011;6464;42.494;27.470;2024-02-14T19:57:30;6.87;;;6.67;;
12800;SDS011;6464;42.494;27.470;2024-02-14T19:59:57;6.57;;;6.37;;
12800;SDS011;6464;42.494;27.470;2024-02-14T20:02:24;6.33;;;6.13;;
12800;SDS011;6464;42.494;27.470;2024-02-14T20:04:53;6.97;;;6.77;;
12800;SDS011;6464;42.494;27.470;2024-02-14T20:07:22;6.73;;;6.53;;
12800;SDS011;6464;42.494;27.470;2024-02-14T20:09:49;5.87;;;5.77;;
12800;SDS011;6464;42.494;27.470;2024-02-14T20:12:16;6.10;;;6.00;;
12800;SDS011;6464;42.494;27.470;2024-02-14T20:14:43;6.50;;;6.30;;
12800;SDS011;6464;42.494;27.470;2024-02-14T20:17:10;6.70;;;6.50;;
12800;SDS011;6464;42.494;27.470;2024-02-14T20:19:38;6.30;;;6.10;;
12800;SDS011;6464;42.494;27.470;2024-02-14T20:22:06;6.30;;;6.10;;
12800;SDS011;6464;42.494;27.470;2024-02-14T20:24:34;6.23;;;6.03;;
12800;SDS011;6464;42.494;27.470;2024-02-14T20:27:01;6.00;;;5.90;;
12800;SDS011;6464;42.494;27.470;2024-02-14T20:29:28;6.43;;;6.23;;
12800;SDS011;6464;42.494;27.470;2024-02-14T20:31:55;5.60;;;5.50;;
12800;SDS011;6464;42.494;27.470;2024-02-14T20:34:22;5.97;;;5.87;;
12800;SDS011;6464;42.494;27.470;2024-02-14T20:36:49;5.90;;;5.80;;
12800;SDS011;6464;42.494;27.470;2024-02-14T20:39:18;5.83;;;5.73;;
12800;SDS011;6464;42.494;27.470;2024-02-14T20:41:53;6.17;;;6.00;;
12800;SDS011;6464;42.494;27.470;2024-02-14T20:44:36;6.40;;;6.20;;
12800;SDS011;6464;42.494;27.470;2024-02-14T20:47:09;5.90;;;5.80;;
12800;SDS011;6464;42.494;27.470;2024-02-14T20:49:38;5.80;;;5.70;;
12800;SDS011;6464;42.494;27.470;2024-02-14T20:52:05;5.87;;;5.77;;
12800;SDS011;6464;42.494;27.470;2024-02-14T20:54:32;6.20;;;6.03;;
12800;SDS011;6464;42.494;27.470;2024-02-14T20:57:07;5.80;;;5.70;;
12800;SDS011;6464;42.494;27.470;2024-02-14T20:59:34;5.80;;;5.70;;
12800;SDS011;6464;42.494;27.470;2024-02-14T21:02:01;6.70;;;6.50;;
12800;SDS011;6464;42.494;27.470;2024-02-14T21:04:29;6.70;;;6.50;;
12800;SDS011;6464;42.494;27.470;2024-02-14T21:06:56;6.43;;;6.23;;
12800;SDS011;6464;42.494;27.470;2024-02-14T21:09:24;6.10;;;6.00;;
12800;SDS011;6464;42.494;27.470;2024-02-14T21:11:54;6.70;;;6.50;;
12800;SDS011;6464;42.494;27.470;2024-02-14T21:14:27;6.63;;;6.43;;
12800;SDS011;6464;42.494;27.470;2024-02-14T21:16:57;6.67;;;6.47;;
12800;SDS011;6464;42.494;27.470;2024-02-14T21:19:35;6.27;;;6.07;;
12800;SDS011;6464;42.494;27.470;2024-02-14T21:22:02;5.43;;;5.33;;
12800;SDS011;6464;42.494;27.470;2024-02-14T21:24:29;5.93;;;5.83;;
12800;SDS011;6464;42.494;27.470;2024-02-14T21:26:58;5.70;;;5.60;;
12800;SDS011;6464;42.494;27.470;2024-02-14T21:29:27;6.37;;;6.17;;
12800;SDS011;6464;42.494;27.470;2024-02-14T21:31:55;6.33;;;6.13;;
12800;SDS011;6464;42.494;27.470;2024-02-14T21:34:22;6.00;;;5.90;;
12800;SDS011;6464;42.494;27.470;2024-02-14T21:36:50;6.80;;;6.60;;
12800;SDS011;6464;42.494;27.470;2024-02-14T21:39:22;6.90;;;6.70;;
12800;SDS011;6464;42.494;27.470;2024-02-14T21:41:52;6.50;;;6.30;;
12800;SDS011;6464;42.494;27.470;2024-02-14T21:44:23;6.60;;;6.40;;
12800;SDS011;6464;42.494;27.470;2024-02-14T21:46:54;6.80;;;6.60;;
12800;SDS011;6464;42.494;27.470;2024-02-14T21:49:23;6.10;;;6.00;;
12800;SDS011;6464;42.494;27.470;2024-02-14T21:51:55;6.50;;;6.30;;
12800;SDS011;6464;42.494;27.470;2024-02-14T21:54:23;7.07;;;6.87;;
12800;SDS011;6464;42.494;27.470;2024-02-14T21:56:51;6.53;;;6.33;;
12800;SDS011;6464;42.494;27.470;2024-02-14T21:59:18;6.90;;;6.70;;
12800;SDS011;6464;42.494;27.470;2024-02-14T22:01:47;6.40;;;6.20;;
12800;SDS011;6464;42.494;27.470;2024-02-14T23:00:16;6.90;;;6.70;;
12800;SDS011;6464;42.494;27.470;2024-02-14T23:02:47;6.60;;;6.40;;
12800;SDS011;6464;42.494;27.470;2024-02-14T23:05:15;6.90;;;6.70;;
12800;SDS011;6464;42.494;27.470;2024-02-14T23:07:45;6.90;;;6.70;;
12800;SDS011;6464;42.494;27.470;2024-02-14T23:10:12;6.70;;;6.50;;
12800;SDS011;6464;42.494;27.470;2024-02-14T23:12:41;6.70;;;6.50;;
12800;SDS011;6464;42.494;27.470;2024-02-14T23:21:02;6.50;;;6.30;;
12800;SDS011;6464;42.494;27.470;2024-02-14T23:23:37;6.80;;;6.60;;
12800;SDS011;6464;42.494;27.470;2024-02-14T23:26:05;7.30;;;7.10;;
12800;SDS011;6464;42.494;27.470;2024-02-14T23:28:32;7.00;;;6.80;;
12800;SDS011;6464;42.494;27.470;2024-02-14T23:30:59;6.80;;;6.60;;
12800;SDS011;6464;42.494;27.470;2024-02-14T23:33:26;6.87;;;6.67;;
12800;SDS011;6464;42.494;27.470;2024-02-14T23:36:08;6.77;;;6.57;;
12800;SDS011;6464;42.494;27.470;2024-02-14T23:38:35;6.50;;;6.30;;
12800;SDS011;6464;42.494;27.470;2024-02-14T23:41:04;7.10;;;6.90;;
12800;SDS011;6464;42.494;27.470;2024-02-14T23:43:32;7.20;;;7.00;;
12800;SDS011;6464;42.494;27.470;2024-02-14T23:45:59;7.20;;;7.00;;
12800;SDS011;6464;42.494;27.470;2024-02-14T23:48:26;7.00;;;6.80;;
12800;SDS011;6464;42.494;27.470;2024-02-14T23:50:53;6.60;;;6.40;;
12800;SDS011;6464;42.494;27.470;2024-02-14T23:56:20;6.90;;;6.70;;
12800;SDS011;6464;42.494;27.470;2024-02-14T23:58:48;6.30;;;6.10;;
